createdAt,value
2022-08-10T00:01:52.236Z,17.50
2022-08-10T00:04:22.441Z,17.50
2022-08-10T00:06:55.534Z,17.50
2022-08-10T00:09:25.346Z,17.50
2022-08-10T00:11:53.807Z,17.50
2022-08-10T00:14:22.610Z,17.40
2022-08-10T00:16:51.062Z,17.40
2022-08-10T00:19:19.472Z,17.30
2022-08-10T00:21:48.519Z,17.30
2022-08-10T00:24:18.503Z,17.10
2022-08-10T00:27:52.200Z,17.30
2022-08-10T00:29:35.407Z,17.20
2022-08-10T00:32:04.258Z,17.10
2022-08-10T00:34:34.574Z,17.10
2022-08-10T00:37:03.130Z,17.10
2022-08-10T00:39:36.011Z,17.10
2022-08-10T00:42:08.159Z,17.00
2022-08-10T00:44:38.417Z,16.90
2022-08-10T00:47:20.721Z,16.90
2022-08-10T00:49:56.766Z,16.90
2022-08-10T00:52:26.450Z,16.90
2022-08-10T00:54:57.483Z,16.90
2022-08-10T00:57:26.773Z,16.90
2022-08-10T01:00:00.100Z,16.80
2022-08-10T01:02:32.301Z,16.70
2022-08-10T01:05:06.333Z,16.70
2022-08-10T01:08:04.993Z,16.60
2022-08-10T01:10:53.499Z,16.60
2022-08-10T01:13:32.141Z,16.60
2022-08-10T01:16:13.918Z,16.50
2022-08-10T01:18:52.931Z,16.60
2022-08-10T01:22:05.972Z,16.50
2022-08-10T01:25:24.199Z,16.40
2022-08-10T01:28:07.993Z,16.40
2022-08-10T01:30:39.886Z,16.40
2022-08-10T01:33:13.416Z,16.30
2022-08-10T01:35:53.094Z,16.30
2022-08-10T01:38:27.237Z,16.40
2022-08-10T01:41:03.358Z,16.20
2022-08-10T01:43:34.572Z,16.20
2022-08-10T01:46:08.870Z,16.20
2022-08-10T01:48:47.422Z,16.20
2022-08-10T01:51:24.530Z,16.20
2022-08-10T01:54:10.648Z,16.10
2022-08-10T01:56:45.027Z,16.00
2022-08-10T01:59:19.931Z,15.90
2022-08-10T02:01:55.617Z,15.90
2022-08-10T02:04:27.232Z,15.90
2022-08-10T02:06:58.029Z,15.90
2022-08-10T02:09:31.563Z,16.20
2022-08-10T02:12:08.805Z,15.80
2022-08-10T02:14:46.024Z,15.80
2022-08-10T02:17:57.686Z,15.80
2022-08-10T02:20:16.621Z,15.80
2022-08-10T02:22:49.072Z,15.70
2022-08-10T02:25:39.724Z,15.70
2022-08-10T02:28:10.332Z,15.70
2022-08-10T02:30:39.797Z,15.70
2022-08-10T02:33:13.331Z,15.70
2022-08-10T02:35:55.187Z,15.70
2022-08-10T02:38:59.558Z,15.60
2022-08-10T02:45:01.479Z,15.60
2022-08-10T02:45:20.987Z,15.60
2022-08-10T02:47:29.314Z,15.60
2022-08-10T02:50:27.120Z,15.60
2022-08-10T02:53:02.679Z,15.60
2022-08-10T02:55:43.760Z,15.60
2022-08-10T02:58:27.378Z,15.50
2022-08-10T03:00:58.692Z,15.50
2022-08-10T03:03:31.649Z,15.50
2022-08-10T03:06:09.310Z,15.50
2022-08-10T03:08:44.872Z,15.50
2022-08-10T03:12:35.819Z,15.40
2022-08-10T03:14:17.483Z,15.40
2022-08-10T03:16:48.841Z,15.40
2022-08-10T03:20:35.511Z,15.40
2022-08-10T03:22:12.560Z,15.40
2022-08-10T03:24:44.585Z,15.30
2022-08-10T03:27:14.976Z,15.30
2022-08-10T03:30:27.405Z,15.30
2022-08-10T03:32:35.463Z,15.20
2022-08-10T03:35:05.768Z,15.20
2022-08-10T03:37:35.571Z,15.10
2022-08-10T03:40:04.519Z,15.10
2022-08-10T03:42:36.259Z,15.20
2022-08-10T03:45:09.010Z,15.10
2022-08-10T03:47:40.346Z,15.10
2022-08-10T03:50:27.956Z,15.10
2022-08-10T03:53:02.298Z,15.10
2022-08-10T03:56:27.130Z,15.30
2022-08-10T03:58:20.923Z,15.10
2022-08-10T04:00:51.445Z,15.10
2022-08-10T04:03:20.785Z,15.10
2022-08-10T04:05:49.350Z,15.00
2022-08-10T04:08:19.129Z,15.10
2022-08-10T04:10:47.321Z,15.20
2022-08-10T04:13:15.553Z,15.30
2022-08-10T04:15:43.804Z,15.30
2022-08-10T04:18:12.048Z,15.30
2022-08-10T04:20:46.303Z,15.30
2022-08-10T04:23:22.717Z,15.30
2022-08-10T04:25:52.111Z,15.40
2022-08-10T04:28:20.872Z,15.30
2022-08-10T04:30:53.156Z,15.40
2022-08-10T04:33:25.161Z,15.30
2022-08-10T04:35:55.148Z,15.40
2022-08-10T04:38:28.427Z,15.50
2022-08-10T04:40:57.676Z,15.60
2022-08-10T04:43:25.916Z,15.70
2022-08-10T04:45:54.154Z,15.80
2022-08-10T04:48:42.916Z,15.90
2022-08-10T04:51:18.942Z,15.90
2022-08-10T04:54:03.889Z,16.10
2022-08-10T04:56:37.708Z,16.20
2022-08-10T04:59:07.643Z,16.20
2022-08-10T05:02:13.469Z,16.20
2022-08-10T05:04:34.788Z,16.30
2022-08-10T05:07:10.099Z,16.40
2022-08-10T05:10:04.134Z,16.30
2022-08-10T05:12:30.077Z,16.30
2022-08-10T05:14:58.396Z,16.40
2022-08-10T05:17:27.651Z,16.40
2022-08-10T05:20:02.176Z,16.20
2022-08-10T05:22:35.035Z,16.40
2022-08-10T05:25:06.589Z,16.50
2022-08-10T05:27:35.414Z,16.80
2022-08-10T05:30:04.740Z,16.80
2022-08-10T05:32:57.538Z,16.70
2022-08-10T05:35:22.069Z,16.80
2022-08-10T05:38:11.947Z,16.90
2022-08-10T05:40:47.249Z,17.00
2022-08-10T05:43:19.058Z,17.40
2022-08-10T05:46:16.855Z,17.30
2022-08-10T05:48:55.715Z,17.50
2022-08-10T05:51:28.227Z,17.90
2022-08-10T05:54:01.059Z,17.90
2022-08-10T05:56:53.723Z,18.00
2022-08-10T06:00:35.828Z,18.50
2022-08-10T06:02:31.417Z,18.90
2022-08-10T06:05:08.302Z,18.90
2022-08-10T06:07:42.077Z,18.80
2022-08-10T06:10:15.857Z,19.00
2022-08-10T06:13:29.915Z,19.00
2022-08-10T06:16:03.724Z,19.00
2022-08-10T06:18:32.373Z,19.10
2022-08-10T06:21:01.628Z,19.20
2022-08-10T06:23:31.837Z,19.70
2022-08-10T06:26:11.254Z,19.80
2022-08-10T06:29:02.019Z,19.60
2022-08-10T06:31:48.009Z,19.70
2022-08-10T06:34:23.777Z,19.80
2022-08-10T06:36:54.188Z,19.70
2022-08-10T06:39:39.330Z,19.80
2022-08-10T06:42:18.384Z,19.90
2022-08-10T06:45:02.842Z,20.40
2022-08-10T06:47:44.578Z,20.30
2022-08-10T06:50:45.104Z,20.50
2022-08-10T06:53:16.929Z,20.50
2022-08-10T06:55:56.595Z,20.70
2022-08-10T06:58:33.697Z,21.20
2022-08-10T07:01:08.400Z,21.10
2022-08-10T07:03:44.462Z,21.20
2022-08-10T07:06:15.365Z,21.20
2022-08-10T07:08:46.626Z,21.40
2022-08-10T07:11:16.941Z,21.40
2022-08-10T07:14:17.237Z,21.60
2022-08-10T07:16:42.534Z,22.20
2022-08-10T07:19:11.940Z,22.50
2022-08-10T07:21:44.156Z,22.30
2022-08-10T07:24:15.748Z,22.50
2022-08-10T07:26:50.232Z,22.90
2022-08-10T07:29:54.385Z,22.40
2022-08-10T07:32:18.463Z,22.60
2022-08-10T07:34:52.053Z,22.70
2022-08-10T07:37:22.277Z,22.80
2022-08-10T07:40:02.491Z,23.00
2022-08-10T07:42:35.459Z,23.10
2022-08-10T07:45:05.559Z,22.80
2022-08-10T07:47:46.057Z,22.70
2022-08-10T07:50:25.993Z,22.90
2022-08-10T07:52:59.139Z,22.90
2022-08-10T07:56:07.521Z,23.00
2022-08-10T07:58:19.471Z,23.20
2022-08-10T08:00:51.498Z,23.70
2022-08-10T08:03:27.378Z,23.60
2022-08-10T08:06:03.304Z,23.80
2022-08-10T08:08:38.707Z,23.80
2022-08-10T08:11:08.956Z,23.70
2022-08-10T08:13:40.091Z,23.40
2022-08-10T08:16:17.418Z,23.50
2022-08-10T08:19:24.076Z,24.00
2022-08-10T08:24:10.246Z,24.30
2022-08-10T08:24:37.482Z,24.60
2022-08-10T08:27:07.707Z,24.40
2022-08-10T08:29:40.166Z,24.50
2022-08-10T08:32:09.492Z,24.70
2022-08-10T08:34:42.781Z,24.80
2022-08-10T08:38:28.805Z,25.10
2022-08-10T08:40:05.328Z,24.80
2022-08-10T08:43:02.497Z,24.90
2022-08-10T08:46:00.662Z,24.40
2022-08-10T08:49:02.635Z,24.00
2022-08-10T08:52:06.320Z,24.30
2022-08-10T08:54:58.947Z,24.70
2022-08-10T08:57:50.172Z,24.80
2022-08-10T09:00:35.272Z,25.00
2022-08-10T09:03:33.118Z,25.30
2022-08-10T09:06:25.091Z,25.80
2022-08-10T09:09:20.006Z,26.10
2022-08-10T09:12:09.412Z,25.80
2022-08-10T09:14:50.665Z,25.70
2022-08-10T09:17:28.712Z,26.00
2022-08-10T09:20:09.433Z,26.10
2022-08-10T09:22:47.947Z,26.20
2022-08-10T09:25:21.494Z,26.00
2022-08-10T09:27:57.585Z,25.70
2022-08-10T09:30:38.541Z,25.70
2022-08-10T09:36:25.994Z,25.50
2022-08-10T09:36:32.145Z,25.80
2022-08-10T09:40:12.726Z,26.20
2022-08-10T09:42:15.431Z,26.30
2022-08-10T09:44:58.351Z,25.50
2022-08-10T09:48:00.928Z,25.30
2022-08-10T09:51:28.096Z,25.80
2022-08-10T09:53:50.001Z,26.00
2022-08-10T09:56:30.478Z,26.00
2022-08-10T09:59:27.210Z,26.10
2022-08-10T10:02:20.070Z,25.80
2022-08-10T10:05:04.963Z,25.80
2022-08-10T10:07:37.649Z,26.00
2022-08-10T10:10:14.183Z,26.30
2022-08-10T10:12:56.576Z,26.30
2022-08-10T10:15:38.485Z,26.80
2022-08-10T10:18:23.240Z,27.10
2022-08-10T10:21:04.177Z,27.30
2022-08-10T10:24:19.815Z,27.50
2022-08-10T10:26:48.800Z,27.30
2022-08-10T10:29:57.319Z,27.50
2022-08-10T10:32:42.503Z,27.90
2022-08-10T10:35:25.443Z,27.70
2022-08-10T10:38:10.406Z,27.40
2022-08-10T10:40:50.626Z,26.40
2022-08-10T10:43:40.159Z,26.50
2022-08-10T10:46:25.569Z,26.80
2022-08-10T10:49:08.311Z,27.30
2022-08-10T10:51:55.276Z,27.50
2022-08-10T10:54:42.556Z,27.90
2022-08-10T10:57:20.755Z,28.40
2022-08-10T11:00:01.854Z,28.60
2022-08-10T11:02:58.366Z,28.60
2022-08-10T11:05:44.027Z,28.80
2022-08-10T11:08:19.908Z,29.10
2022-08-10T11:11:05.370Z,28.90
2022-08-10T11:14:26.142Z,28.50
2022-08-10T11:16:57.147Z,27.90
2022-08-10T11:20:00.264Z,28.10
2022-08-10T11:22:40.235Z,27.60
2022-08-10T11:25:17.097Z,27.70
2022-08-10T11:27:53.323Z,27.90
2022-08-10T11:30:30.220Z,28.20
2022-08-10T11:33:15.530Z,28.60
2022-08-10T11:36:08.180Z,28.90
2022-08-10T11:39:13.128Z,29.30
2022-08-10T11:42:12.441Z,29.10
2022-08-10T11:44:50.266Z,29.30
2022-08-10T11:47:23.417Z,29.40
2022-08-10T11:49:58.753Z,29.50
2022-08-10T11:52:38.233Z,29.60
2022-08-10T11:55:18.443Z,29.90
2022-08-10T11:57:53.117Z,29.50
2022-08-10T12:00:24.225Z,29.40
2022-08-10T12:02:59.058Z,29.30
2022-08-10T12:05:48.195Z,29.30
2022-08-10T12:10:06.364Z,29.20
2022-08-10T12:11:24.175Z,29.10
2022-08-10T12:16:57.416Z,28.30
2022-08-10T12:19:59.059Z,29.10
2022-08-10T12:22:32.576Z,29.40
2022-08-10T12:25:06.950Z,29.50
2022-08-10T12:27:43.082Z,29.60
2022-08-10T12:30:16.461Z,29.20
2022-08-10T12:32:55.961Z,29.30
2022-08-10T12:35:36.824Z,29.50
2022-08-10T12:38:16.024Z,29.10
2022-08-10T12:40:49.785Z,29.00
2022-08-10T12:44:07.338Z,29.30
2022-08-10T12:46:27.423Z,29.60
2022-08-10T12:49:08.138Z,29.60
2022-08-10T12:51:46.926Z,29.50
2022-08-10T12:54:31.824Z,29.30
2022-08-10T12:57:06.538Z,30.00
2022-08-10T12:59:43.275Z,31.20
2022-08-10T13:02:21.113Z,31.50
2022-08-10T13:04:54.232Z,31.90
2022-08-10T13:08:03.707Z,32.40
2022-08-10T13:10:19.364Z,32.90
2022-08-10T13:12:52.942Z,34.20
2022-08-10T13:15:50.174Z,33.70
2022-08-10T13:18:18.718Z,33.70
2022-08-10T13:20:54.550Z,33.90
2022-08-10T13:23:28.031Z,33.90
2022-08-10T13:26:01.289Z,33.90
2022-08-10T13:28:43.169Z,33.60
2022-08-10T13:31:19.716Z,33.80
2022-08-10T13:34:03.762Z,34.70
2022-08-10T13:36:44.011Z,35.00
2022-08-10T13:39:14.218Z,35.40
2022-08-10T13:41:47.954Z,35.50
2022-08-10T13:44:29.064Z,35.10
2022-08-10T13:46:59.061Z,35.40
2022-08-10T13:49:31.563Z,35.20
2022-08-10T13:52:00.134Z,35.90
2022-08-10T13:54:39.988Z,35.90
2022-08-10T13:57:10.645Z,36.10
2022-08-10T14:00:37.729Z,36.20
2022-08-10T14:02:38.829Z,35.80
2022-08-10T14:05:09.569Z,34.80
2022-08-10T14:08:00.362Z,35.20
2022-08-10T14:11:08.347Z,35.70
2022-08-10T14:13:27.441Z,35.90
2022-08-10T14:15:58.320Z,34.80
2022-08-10T14:18:29.153Z,33.60
2022-08-10T14:21:00.086Z,32.60
2022-08-10T14:23:29.529Z,32.30
2022-08-10T14:26:08.694Z,33.10
2022-08-10T14:28:42.902Z,34.30
2022-08-10T14:31:17.552Z,35.20
2022-08-10T14:33:54.872Z,35.60
2022-08-10T14:36:37.782Z,36.60
2022-08-10T14:39:07.356Z,36.30
2022-08-10T14:42:01.380Z,36.30
2022-08-10T14:44:33.365Z,36.40
2022-08-10T14:47:20.157Z,36.60
2022-08-10T14:49:59.546Z,36.30
2022-08-10T14:52:30.156Z,35.90
2022-08-10T14:55:06.375Z,36.20
2022-08-10T14:58:20.066Z,36.20
2022-08-10T15:00:43.240Z,35.90
2022-08-10T15:04:01.733Z,36.20
2022-08-10T15:06:18.125Z,36.20
2022-08-10T15:08:48.846Z,36.60
2022-08-10T15:12:15.671Z,36.00
2022-08-10T15:14:41.471Z,35.50
2022-08-10T15:17:00.377Z,35.40
2022-08-10T15:20:04.771Z,35.30
2022-08-10T15:22:50.316Z,35.00
2022-08-10T15:25:25.160Z,34.60
2022-08-10T15:28:08.868Z,34.60
2022-08-10T15:30:42.942Z,34.40
2022-08-10T15:34:01.971Z,34.00
2022-08-10T15:37:01.774Z,33.40
2022-08-10T15:40:23.814Z,33.10
2022-08-10T15:43:05.662Z,32.50
2022-08-10T15:45:58.785Z,32.10
2022-08-10T15:48:32.464Z,31.70
2022-08-10T15:51:07.098Z,31.40
2022-08-10T15:53:49.221Z,31.10
2022-08-10T15:56:30.047Z,30.90
2022-08-10T15:59:09.291Z,30.90
2022-08-10T16:02:15.118Z,30.60
2022-08-10T16:04:48.652Z,30.50
2022-08-10T16:07:45.735Z,30.10
2022-08-10T16:10:25.327Z,30.00
2022-08-10T16:13:01.840Z,29.80
2022-08-10T16:15:32.729Z,29.60
2022-08-10T16:18:06.757Z,29.70
2022-08-10T16:20:53.111Z,29.40
2022-08-10T16:23:31.884Z,29.40
2022-08-10T16:26:15.265Z,29.10
2022-08-10T16:28:56.179Z,29.00
2022-08-10T16:31:28.460Z,28.80
2022-08-10T16:34:05.600Z,28.70
2022-08-10T16:36:41.860Z,28.60
2022-08-10T16:39:15.693Z,28.60
2022-08-10T16:42:06.156Z,28.50
2022-08-10T16:44:44.797Z,28.30
2022-08-10T16:47:14.636Z,28.30
2022-08-10T16:49:44.698Z,28.20
2022-08-10T16:52:15.579Z,28.10
2022-08-10T16:54:50.140Z,28.00
2022-08-10T16:57:20.671Z,27.90
2022-08-10T16:59:54.335Z,27.90
2022-08-10T17:02:25.925Z,27.70
2022-08-10T17:04:55.805Z,27.80
2022-08-10T17:07:34.826Z,27.70
2022-08-10T17:10:08.766Z,27.60
2022-08-10T17:12:41.206Z,27.50
2022-08-10T17:15:12.032Z,27.40
2022-08-10T17:17:46.703Z,27.40
2022-08-10T17:20:30.529Z,27.40
2022-08-10T17:23:06.792Z,27.40
2022-08-10T17:25:48.408Z,27.40
2022-08-10T17:28:33.063Z,27.30
2022-08-10T17:31:24.134Z,27.10
2022-08-10T17:34:19.037Z,27.10
2022-08-10T17:36:52.500Z,27.00
2022-08-10T17:39:28.677Z,26.90
2022-08-10T17:42:00.419Z,26.90
2022-08-10T17:44:35.480Z,26.80
2022-08-10T17:47:10.655Z,26.80
2022-08-10T17:49:40.992Z,26.70
2022-08-10T17:52:12.644Z,26.50
2022-08-10T17:54:45.198Z,26.50
2022-08-10T17:57:19.990Z,26.40
2022-08-10T17:59:51.944Z,26.40
2022-08-10T18:02:27.285Z,26.30
2022-08-10T18:04:59.709Z,26.20
2022-08-10T18:07:35.294Z,26.20
2022-08-10T18:10:06.847Z,26.10
2022-08-10T18:12:46.919Z,25.90
2022-08-10T18:15:22.019Z,25.90
2022-08-10T18:17:59.452Z,25.80
2022-08-10T18:20:35.740Z,25.80
2022-08-10T18:23:05.959Z,25.70
2022-08-10T18:25:38.589Z,25.60
2022-08-10T18:28:13.379Z,25.50
2022-08-10T18:30:49.904Z,25.40
2022-08-10T18:33:27.153Z,25.30
2022-08-10T18:36:01.749Z,25.30
2022-08-10T18:38:34.624Z,25.10
2022-08-10T18:41:10.123Z,25.10
2022-08-10T18:44:08.379Z,25.00
2022-08-10T18:46:47.076Z,24.90
2022-08-10T18:49:29.805Z,24.90
2022-08-10T18:52:03.210Z,24.70
2022-08-10T18:54:39.599Z,24.70
2022-08-10T18:57:33.347Z,24.60
2022-08-10T19:00:10.877Z,24.50
2022-08-10T19:03:06.425Z,24.40
2022-08-10T19:06:10.456Z,24.30
2022-08-10T19:09:09.880Z,24.20
2022-08-10T19:12:31.036Z,24.10
2022-08-10T19:15:15.239Z,23.90
2022-08-10T19:18:06.068Z,23.80
2022-08-10T19:20:47.820Z,23.70
2022-08-10T19:23:40.608Z,23.70
2022-08-10T19:26:42.936Z,23.60
2022-08-10T19:30:01.069Z,23.50
2022-08-10T19:32:33.038Z,23.40
2022-08-10T19:35:12.074Z,23.20
2022-08-10T19:38:00.607Z,23.00
2022-08-10T19:40:43.927Z,22.80
2022-08-10T19:43:37.352Z,22.60
2022-08-10T19:46:27.966Z,22.40
2022-08-10T19:49:08.201Z,22.20
2022-08-10T19:51:52.685Z,22.10
2022-08-10T19:54:35.089Z,22.00
2022-08-10T19:57:12.919Z,21.90
2022-08-10T20:00:15.812Z,21.70
2022-08-10T20:03:03.803Z,21.60
2022-08-10T20:06:18.892Z,21.50
2022-08-10T20:08:45.504Z,21.40
2022-08-10T20:11:46.195Z,21.30
2022-08-10T20:14:23.387Z,21.30
2022-08-10T20:16:59.613Z,21.30
2022-08-10T20:19:53.499Z,21.40
2022-08-10T20:22:30.474Z,21.50
2022-08-10T20:25:07.881Z,21.50
2022-08-10T20:27:59.523Z,21.50
2022-08-10T20:30:34.299Z,21.40
2022-08-10T20:33:10.482Z,21.30
2022-08-10T20:35:50.979Z,21.20
2022-08-10T20:38:27.347Z,20.90
2022-08-10T20:41:13.177Z,20.70
2022-08-10T20:44:03.461Z,20.60
2022-08-10T20:46:43.170Z,20.40
2022-08-10T20:49:29.848Z,20.40
2022-08-10T20:52:03.683Z,20.30
2022-08-10T20:54:39.199Z,20.30
2022-08-10T20:57:54.947Z,20.40
2022-08-10T21:01:10.122Z,20.60
2022-08-10T21:03:59.633Z,20.70
2022-08-10T21:07:07.342Z,20.50
2022-08-10T21:10:07.646Z,20.40
2022-08-10T21:12:59.291Z,20.20
2022-08-10T21:15:52.902Z,20.00
2022-08-10T21:18:44.618Z,19.80
2022-08-10T21:21:44.412Z,19.80
2022-08-10T21:24:32.032Z,19.70
2022-08-10T21:27:22.451Z,19.80
2022-08-10T21:30:09.157Z,19.80
2022-08-10T21:32:50.649Z,19.80
2022-08-10T21:35:36.712Z,19.70
2022-08-10T21:38:21.464Z,19.70
2022-08-10T21:41:57.095Z,19.50
2022-08-10T21:45:08.021Z,19.50
2022-08-10T21:48:30.046Z,19.30
2022-08-10T21:52:02.225Z,19.30
2022-08-10T21:54:41.167Z,19.30
2022-08-10T21:57:43.640Z,19.20
2022-08-10T22:00:33.537Z,19.10
2022-08-10T22:03:23.708Z,19.10
2022-08-10T22:06:15.347Z,19.00
2022-08-10T22:09:10.720Z,19.10
2022-08-10T22:12:08.083Z,18.90
2022-08-10T22:14:59.166Z,19.10
2022-08-10T22:18:10.594Z,19.20
2022-08-10T22:21:01.761Z,19.20
2022-08-10T22:24:16.940Z,19.10
2022-08-10T22:27:46.365Z,19.00
2022-08-10T22:30:36.008Z,18.70
2022-08-10T22:33:48.709Z,18.40
2022-08-10T22:37:03.782Z,18.20
2022-08-10T22:40:14.115Z,18.10
2022-08-10T22:43:10.654Z,18.10
2022-08-10T22:46:06.248Z,18.00
2022-08-10T22:49:00.527Z,17.90
2022-08-10T22:51:40.929Z,17.80
2022-08-10T22:54:36.036Z,17.70
2022-08-10T22:57:24.261Z,17.60
2022-08-10T22:59:53.508Z,17.50
2022-08-10T23:02:39.937Z,17.50
2022-08-10T23:05:13.974Z,17.40
2022-08-10T23:07:50.662Z,17.40
2022-08-10T23:10:27.316Z,17.30
2022-08-10T23:13:06.403Z,17.30
2022-08-10T23:15:58.607Z,17.30
2022-08-10T23:18:53.651Z,17.30
2022-08-10T23:21:27.289Z,17.10
2022-08-10T23:24:18.377Z,17.20
2022-08-10T23:26:47.136Z,17.10
2022-08-10T23:29:23.153Z,17.10
2022-08-10T23:32:06.669Z,17.00
2022-08-10T23:34:43.346Z,16.90
2022-08-10T23:37:14.029Z,16.80
2022-08-10T23:39:47.455Z,16.80
2022-08-10T23:42:19.917Z,16.70
2022-08-10T23:44:54.111Z,16.60
2022-08-10T23:47:26.685Z,16.70
2022-08-10T23:49:58.940Z,16.80
2022-08-10T23:52:33.072Z,16.80
2022-08-10T23:55:08.687Z,16.70
2022-08-10T23:57:42.516Z,16.60
